To NAV CANADA Home Page Login to a new session Search on AWWS site Feedback and Comments Disclaimer Vers la page française équivalente Tips FAQ What's new on the site To the Forecasts and Observations / NOTAM section To "File a Flight Plan" website Publications and other links Update of the User's profile FIC Telephone Numbers My Weather Data Folder Route Weather Data Regional Weather Data Local Weather Data To the Forecasts and Observations / NOTAM section
Request Generated 05/25/2017 at 01:12:07 UTC . Weather information available at that time is displayed.

METAR/TAF

MARYS HARBOUR/NL    (show WxCam)

METAR CYMH 250100Z AUTO 36007KT 9SM SCT011 BKN021 OVC033 00/M01 A3001
RMK SLP165=
SPECI CYMH 250021Z AUTO 01008KT 9SM SCT011 BKN020 BKN033 OVC043
00/M01 A3000 RMK SLP161=
METAR CYMH 250000Z AUTO 01008G16KT 9SM OVC043 00/M00 A2999 RMK
SLP158=
SPECI CYMH 242334Z AUTO 01009KT 9SM SCT011 OVC043 00/M01 A2998 RMK
SLP155=
METAR CYMH 242300Z AUTO 01009KT 9SM BKN011 OVC036 00/M00 A2998 RMK
SLP153=

TAF AMD CYMH 242340Z 2423/2503 01010KT P6SM OVC030 TEMPO 2423/2503
4SM -SN OVC020
RMK FCST BASED ON AUTO OBS. NXT FCST WILL BE ISSUED AT 250845Z=
Your time UTC time
Weather data provided by Environment Canada and NAV CANADA